sensor_id;sensor_type;location;lat;lon;timestamp;P1;durP1;ratioP1;P2;durP2;ratioP2
71387;SDS011;59201;59.902;10.520;2023-04-03T06:07:51;6.85;;;1.27;;
71387;SDS011;59201;59.902;10.520;2023-04-03T06:10:20;11.10;;;2.55;;
71387;SDS011;59201;59.902;10.520;2023-04-03T06:12:49;16.83;;;3.10;;
71387;SDS011;59201;59.902;10.520;2023-04-03T06:15:18;10.67;;;2.63;;
71387;SDS011;59201;59.902;10.520;2023-04-03T06:17:47;12.30;;;3.33;;
71387;SDS011;59201;59.902;10.520;2023-04-03T06:20:16;14.55;;;4.60;;
71387;SDS011;59201;59.902;10.520;2023-04-03T06:22:46;16.20;;;3.70;;
71387;SDS011;59201;59.902;10.520;2023-04-03T06:25:14;12.77;;;3.17;;
71387;SDS011;59201;59.902;10.520;2023-04-03T06:27:43;12.00;;;3.67;;
71387;SDS011;59201;59.902;10.520;2023-04-03T06:30:10;12.07;;;2.53;;
71387;SDS011;59201;59.902;10.520;2023-04-03T06:32:38;15.68;;;4.18;;
71387;SDS011;59201;59.902;10.520;2023-04-03T06:35:06;14.63;;;2.92;;
71387;SDS011;59201;59.902;10.520;2023-04-03T06:38:01;12.23;;;1.95;;
71387;SDS011;59201;59.902;10.520;2023-04-03T06:40:44;12.23;;;2.37;;
71387;SDS011;59201;59.902;10.520;2023-04-03T06:43:13;8.20;;;1.80;;
71387;SDS011;59201;59.902;10.520;2023-04-03T06:45:45;8.57;;;2.17;;
71387;SDS011;59201;59.902;10.520;2023-04-03T06:48:15;13.02;;;2.10;;
71387;SDS011;59201;59.902;10.520;2023-04-03T06:50:43;8.70;;;1.63;;
71387;SDS011;59201;59.902;10.520;2023-04-03T06:53:11;7.50;;;1.80;;
71387;SDS011;59201;59.902;10.520;2023-04-03T06:55:40;11.25;;;1.77;;
71387;SDS011;59201;59.902;10.520;2023-04-03T06:58:08;8.07;;;1.75;;
71387;SDS011;59201;59.902;10.520;2023-04-03T07:00:39;11.10;;;2.15;;
71387;SDS011;59201;59.902;10.520;2023-04-03T07:03:07;7.90;;;2.00;;
71387;SDS011;59201;59.902;10.520;2023-04-03T07:05:36;11.43;;;2.37;;
71387;SDS011;59201;59.902;10.520;2023-04-03T07:08:05;11.27;;;2.00;;
71387;SDS011;59201;59.902;10.520;2023-04-03T07:10:35;10.52;;;2.47;;
71387;SDS011;59201;59.902;10.520;2023-04-03T07:13:06;5.82;;;1.80;;
71387;SDS011;59201;59.902;10.520;2023-04-03T07:15:36;12.73;;;2.55;;
71387;SDS011;59201;59.902;10.520;2023-04-03T07:18:04;10.30;;;2.30;;
71387;SDS011;59201;59.902;10.520;2023-04-03T07:20:34;8.68;;;2.70;;
71387;SDS011;59201;59.902;10.520;2023-04-03T07:23:04;10.15;;;2.50;;
71387;SDS011;59201;59.902;10.520;2023-04-03T07:25:34;18.70;;;2.85;;
71387;SDS011;59201;59.902;10.520;2023-04-03T07:28:02;11.75;;;2.92;;
71387;SDS011;59201;59.902;10.520;2023-04-03T07:30:31;10.13;;;1.97;;
71387;SDS011;59201;59.902;10.520;2023-04-03T07:33:00;9.18;;;2.58;;
71387;SDS011;59201;59.902;10.520;2023-04-03T07:35:30;10.10;;;2.67;;
71387;SDS011;59201;59.902;10.520;2023-04-03T07:38:00;10.38;;;3.53;;
71387;SDS011;59201;59.902;10.520;2023-04-03T07:40:28;11.20;;;3.30;;
71387;SDS011;59201;59.902;10.520;2023-04-03T07:42:56;8.53;;;1.93;;
71387;SDS011;59201;59.902;10.520;2023-04-03T07:45:28;6.65;;;2.10;;
71387;SDS011;59201;59.902;10.520;2023-04-03T07:47:56;11.18;;;2.00;;
71387;SDS011;59201;59.902;10.520;2023-04-03T07:50:25;7.00;;;2.08;;
71387;SDS011;59201;59.902;10.520;2023-04-03T07:52:57;8.02;;;2.22;;
71387;SDS011;59201;59.902;10.520;2023-04-03T07:55:27;8.93;;;2.30;;
71387;SDS011;59201;59.902;10.520;2023-04-03T07:57:55;9.57;;;2.47;;
71387;SDS011;59201;59.902;10.520;2023-04-03T08:00:25;7.88;;;2.60;;
71387;SDS011;59201;59.902;10.520;2023-04-03T08:03:07;11.75;;;3.08;;
71387;SDS011;59201;59.902;10.520;2023-04-03T08:05:45;9.10;;;2.83;;
71387;SDS011;59201;59.902;10.520;2023-04-03T08:08:17;10.10;;;2.20;;
71387;SDS011;59201;59.902;10.520;2023-04-03T08:10:50;9.60;;;2.40;;
71387;SDS011;59201;59.902;10.520;2023-04-03T08:13:19;8.73;;;2.08;;
71387;SDS011;59201;59.902;10.520;2023-04-03T08:16:08;10.63;;;2.53;;
71387;SDS011;59201;59.902;10.520;2023-04-03T08:18:41;11.75;;;2.42;;
71387;SDS011;59201;59.902;10.520;2023-04-03T08:21:11;8.80;;;2.40;;
71387;SDS011;59201;59.902;10.520;2023-04-03T08:24:05;13.40;;;2.70;;
71387;SDS011;59201;59.902;10.520;2023-04-03T08:26:33;8.82;;;1.40;;
71387;SDS011;59201;59.902;10.520;2023-04-03T08:29:00;10.65;;;1.67;;
71387;SDS011;59201;59.902;10.520;2023-04-03T08:31:28;12.20;;;1.90;;
71387;SDS011;59201;59.902;10.520;2023-04-03T08:33:57;8.00;;;1.70;;
71387;SDS011;59201;59.902;10.520;2023-04-03T08:36:26;9.63;;;1.73;;
71387;SDS011;59201;59.902;10.520;2023-04-03T08:38:55;12.15;;;1.80;;
71387;SDS011;59201;59.902;10.520;2023-04-03T08:41:34;5.50;;;1.60;;
71387;SDS011;59201;59.902;10.520;2023-04-03T08:49:23;7.15;;;1.63;;
71387;SDS011;59201;59.902;10.520;2023-04-03T08:51:51;7.53;;;1.75;;
71387;SDS011;59201;59.902;10.520;2023-04-03T08:54:28;6.55;;;2.17;;
71387;SDS011;59201;59.902;10.520;2023-04-03T08:57:06;3.63;;;1.42;;
71387;SDS011;59201;59.902;10.520;2023-04-03T08:59:35;4.30;;;1.30;;
71387;SDS011;59201;59.902;10.520;2023-04-03T09:02:13;3.30;;;0.98;;
71387;SDS011;59201;59.902;10.520;2023-04-03T09:04:44;6.40;;;1.58;;
71387;SDS011;59201;59.902;10.520;2023-04-03T09:07:24;4.88;;;1.50;;
71387;SDS011;59201;59.902;10.520;2023-04-03T09:09:54;16.00;;;2.55;;
71387;SDS011;59201;59.902;10.520;2023-04-03T09:12:27;5.37;;;1.83;;
71387;SDS011;59201;59.902;10.520;2023-04-03T09:15:09;6.05;;;2.20;;
71387;SDS011;59201;59.902;10.520;2023-04-03T09:17:45;9.23;;;1.83;;
71387;SDS011;59201;59.902;10.520;2023-04-03T09:20:30;4.82;;;1.45;;
71387;SDS011;59201;59.902;10.520;2023-04-03T09:23:00;13.18;;;2.30;;
71387;SDS011;59201;59.902;10.520;2023-04-03T09:25:33;13.07;;;1.90;;
71387;SDS011;59201;59.902;10.520;2023-04-03T09:28:02;8.73;;;1.63;;
71387;SDS011;59201;59.902;10.520;2023-04-03T09:30:35;7.43;;;1.98;;
71387;SDS011;59201;59.902;10.520;2023-04-03T09:33:04;6.90;;;1.52;;
71387;SDS011;59201;59.902;10.520;2023-04-03T09:35:34;29.42;;;2.47;;
71387;SDS011;59201;59.902;10.520;2023-04-03T09:45:45;11.18;;;2.63;;
71387;SDS011;59201;59.902;10.520;2023-04-03T09:55:59;9.50;;;1.98;;
71387;SDS011;59201;59.902;10.520;2023-04-03T09:58:37;5.57;;;1.92;;
71387;SDS011;59201;59.902;10.520;2023-04-03T10:01:19;8.73;;;2.47;;
71387;SDS011;59201;59.902;10.520;2023-04-03T10:04:02;10.77;;;2.63;;
71387;SDS011;59201;59.902;10.520;2023-04-03T10:06:32;8.50;;;2.60;;
71387;SDS011;59201;59.902;10.520;2023-04-03T10:09:06;6.20;;;2.42;;
71387;SDS011;59201;59.902;10.520;2023-04-03T10:11:34;7.75;;;1.92;;
71387;SDS011;59201;59.902;10.520;2023-04-03T10:14:04;4.20;;;1.30;;
71387;SDS011;59201;59.902;10.520;2023-04-03T10:16:34;5.23;;;1.50;;
71387;SDS011;59201;59.902;10.520;2023-04-03T10:19:20;5.57;;;1.77;;
71387;SDS011;59201;59.902;10.520;2023-04-03T10:24:33;4.40;;;1.25;;
71387;SDS011;59201;59.902;10.520;2023-04-03T10:29:43;4.70;;;1.40;;
71387;SDS011;59201;59.902;10.520;2023-04-03T10:32:36;7.45;;;1.67;;
71387;SDS011;59201;59.902;10.520;2023-04-03T10:35:13;5.68;;;1.55;;
71387;SDS011;59201;59.902;10.520;2023-04-03T10:40:48;5.32;;;1.70;;
71387;SDS011;59201;59.902;10.520;2023-04-03T10:46:11;7.20;;;1.50;;
71387;SDS011;59201;59.902;10.520;2023-04-03T10:54:54;9.63;;;1.52;;
71387;SDS011;59201;59.902;10.520;2023-04-03T10:57:21;6.73;;;1.40;;
71387;SDS011;59201;59.902;10.520;2023-04-03T10:59:56;4.68;;;1.20;;
71387;SDS011;59201;59.902;10.520;2023-04-03T11:02:30;8.65;;;1.70;;
71387;SDS011;59201;59.902;10.520;2023-04-03T11:05:03;5.93;;;1.20;;
71387;SDS011;59201;59.902;10.520;2023-04-03T11:07:43;5.30;;;1.20;;
71387;SDS011;59201;59.902;10.520;2023-04-03T11:10:36;3.57;;;1.07;;
71387;SDS011;59201;59.902;10.520;2023-04-03T11:15:47;4.18;;;1.30;;
71387;SDS011;59201;59.902;10.520;2023-04-03T11:18:22;5.28;;;1.27;;
71387;SDS011;59201;59.902;10.520;2023-04-03T11:21:01;5.03;;;1.38;;
71387;SDS011;59201;59.902;10.520;2023-04-03T11:23:36;6.23;;;1.20;;
71387;SDS011;59201;59.902;10.520;2023-04-03T11:26:10;6.65;;;1.40;;
71387;SDS011;59201;59.902;10.520;2023-04-03T11:28:39;10.43;;;1.58;;
71387;SDS011;59201;59.902;10.520;2023-04-03T11:32:11;5.80;;;1.33;;
71387;SDS011;59201;59.902;10.520;2023-04-03T11:36:54;5.13;;;1.13;;
71387;SDS011;59201;59.902;10.520;2023-04-03T11:39:32;4.78;;;1.40;;
71387;SDS011;59201;59.902;10.520;2023-04-03T11:42:25;5.68;;;1.63;;
71387;SDS011;59201;59.902;10.520;2023-04-03T11:47:49;5.30;;;1.38;;
71387;SDS011;59201;59.902;10.520;2023-04-03T11:58:48;5.40;;;1.23;;
71387;SDS011;59201;59.902;10.520;2023-04-03T12:00:52;4.93;;;1.30;;
71387;SDS011;59201;59.902;10.520;2023-04-03T12:08:28;4.25;;;1.35;;
71387;SDS011;59201;59.902;10.520;2023-04-03T12:11:42;5.93;;;1.40;;
71387;SDS011;59201;59.902;10.520;2023-04-03T12:16:19;6.90;;;1.40;;
71387;SDS011;59201;59.902;10.520;2023-04-03T12:21:22;6.15;;;1.40;;
71387;SDS011;59201;59.902;10.520;2023-04-03T12:29:22;4.77;;;1.43;;
71387;SDS011;59201;59.902;10.520;2023-04-03T12:37:37;6.50;;;1.50;;
71387;SDS011;59201;59.902;10.520;2023-04-03T12:40:15;4.22;;;1.10;;
71387;SDS011;59201;59.902;10.520;2023-04-03T12:45:25;6.25;;;1.38;;
71387;SDS011;59201;59.902;10.520;2023-04-03T12:47:54;4.80;;;1.23;;
71387;SDS011;59201;59.902;10.520;2023-04-03T12:50:26;6.30;;;1.17;;
71387;SDS011;59201;59.902;10.520;2023-04-03T12:55:28;5.37;;;1.40;;
71387;SDS011;59201;59.902;10.520;2023-04-03T12:58:19;5.30;;;1.13;;
71387;SDS011;59201;59.902;10.520;2023-04-03T13:01:30;4.97;;;1.40;;
71387;SDS011;59201;59.902;10.520;2023-04-03T13:03:39;5.28;;;1.30;;
71387;SDS011;59201;59.902;10.520;2023-04-03T13:06:21;4.68;;;1.10;;
71387;SDS011;59201;59.902;10.520;2023-04-03T13:09:00;5.37;;;1.17;;
71387;SDS011;59201;59.902;10.520;2023-04-03T13:11:30;4.93;;;1.00;;
71387;SDS011;59201;59.902;10.520;2023-04-03T13:14:04;6.28;;;1.30;;
71387;SDS011;59201;59.902;10.520;2023-04-03T13:16:33;5.53;;;1.27;;
71387;SDS011;59201;59.902;10.520;2023-04-03T13:19:02;5.55;;;1.30;;
71387;SDS011;59201;59.902;10.520;2023-04-03T13:21:30;5.20;;;1.30;;
71387;SDS011;59201;59.902;10.520;2023-04-03T13:24:23;5.18;;;1.10;;
71387;SDS011;59201;59.902;10.520;2023-04-03T13:26:53;6.07;;;1.27;;
71387;SDS011;59201;59.902;10.520;2023-04-03T13:29:23;5.65;;;1.23;;
71387;SDS011;59201;59.902;10.520;2023-04-03T13:31:55;5.22;;;1.33;;
71387;SDS011;59201;59.902;10.520;2023-04-03T13:34:24;6.87;;;1.30;;
71387;SDS011;59201;59.902;10.520;2023-04-03T13:39:39;6.28;;;1.30;;
71387;SDS011;59201;59.902;10.520;2023-04-03T13:42:25;7.78;;;1.50;;
71387;SDS011;59201;59.902;10.520;2023-04-03T13:47:41;4.50;;;1.10;;
71387;SDS011;59201;59.902;10.520;2023-04-03T13:50:17;4.47;;;1.00;;
71387;SDS011;59201;59.902;10.520;2023-04-03T13:52:47;6.57;;;1.20;;
71387;SDS011;59201;59.902;10.520;2023-04-03T13:57:51;5.90;;;1.30;;
71387;SDS011;59201;59.902;10.520;2023-04-03T14:02:55;7.38;;;1.17;;
71387;SDS011;59201;59.902;10.520;2023-04-03T14:05:23;6.68;;;1.50;;
71387;SDS011;59201;59.902;10.520;2023-04-03T14:07:54;5.97;;;1.33;;
71387;SDS011;59201;59.902;10.520;2023-04-03T14:10:22;6.57;;;1.40;;
71387;SDS011;59201;59.902;10.520;2023-04-03T14:12:51;5.13;;;1.00;;
71387;SDS011;59201;59.902;10.520;2023-04-03T14:15:23;5.32;;;1.73;;
71387;SDS011;59201;59.902;10.520;2023-04-03T14:17:54;6.35;;;1.20;;
71387;SDS011;59201;59.902;10.520;2023-04-03T14:20:27;4.60;;;1.25;;
71387;SDS011;59201;59.902;10.520;2023-04-03T14:22:56;5.10;;;1.30;;
71387;SDS011;59201;59.902;10.520;2023-04-03T14:25:25;6.20;;;1.20;;
71387;SDS011;59201;59.902;10.520;2023-04-03T14:27:53;4.07;;;1.00;;
71387;SDS011;59201;59.902;10.520;2023-04-03T14:30:27;4.43;;;1.10;;
71387;SDS011;59201;59.902;10.520;2023-04-03T14:32:55;4.47;;;1.10;;
71387;SDS011;59201;59.902;10.520;2023-04-03T14:35:25;5.28;;;1.30;;
71387;SDS011;59201;59.902;10.520;2023-04-03T14:37:54;4.50;;;1.30;;
71387;SDS011;59201;59.902;10.520;2023-04-03T14:40:25;8.23;;;1.55;;
71387;SDS011;59201;59.902;10.520;2023-04-03T14:42:53;5.45;;;1.42;;
71387;SDS011;59201;59.902;10.520;2023-04-03T14:45:23;8.57;;;1.40;;
71387;SDS011;59201;59.902;10.520;2023-04-03T14:47:55;5.07;;;1.20;;
71387;SDS011;59201;59.902;10.520;2023-04-03T14:50:22;3.20;;;0.90;;
71387;SDS011;59201;59.902;10.520;2023-04-03T14:52:56;4.38;;;1.10;;
71387;SDS011;59201;59.902;10.520;2023-04-03T14:55:25;6.15;;;1.23;;
71387;SDS011;59201;59.902;10.520;2023-04-03T14:57:54;5.30;;;1.20;;
71387;SDS011;59201;59.902;10.520;2023-04-03T15:00:22;5.03;;;1.10;;
71387;SDS011;59201;59.902;10.520;2023-04-03T15:02:50;7.57;;;1.33;;
71387;SDS011;59201;59.902;10.520;2023-04-03T15:05:23;5.85;;;1.15;;
71387;SDS011;59201;59.902;10.520;2023-04-03T15:07:54;5.32;;;1.33;;
71387;SDS011;59201;59.902;10.520;2023-04-03T15:10:27;6.78;;;1.13;;
71387;SDS011;59201;59.902;10.520;2023-04-03T15:12:56;4.72;;;1.15;;
71387;SDS011;59201;59.902;10.520;2023-04-03T15:15:27;5.20;;;1.20;;
71387;SDS011;59201;59.902;10.520;2023-04-03T15:17:56;6.03;;;1.10;;
71387;SDS011;59201;59.902;10.520;2023-04-03T15:20:28;4.00;;;1.05;;
71387;SDS011;59201;59.902;10.520;2023-04-03T15:22:59;5.78;;;1.33;;
71387;SDS011;59201;59.902;10.520;2023-04-03T15:25:30;4.78;;;1.00;;
71387;SDS011;59201;59.902;10.520;2023-04-03T15:27:58;4.50;;;1.03;;
71387;SDS011;59201;59.902;10.520;2023-04-03T15:30:31;3.55;;;0.93;;
71387;SDS011;59201;59.902;10.520;2023-04-03T15:33:01;5.18;;;1.20;;
71387;SDS011;59201;59.902;10.520;2023-04-03T15:35:31;5.20;;;1.00;;
71387;SDS011;59201;59.902;10.520;2023-04-03T15:38:00;5.88;;;1.20;;
71387;SDS011;59201;59.902;10.520;2023-04-03T15:40:28;3.77;;;0.97;;
71387;SDS011;59201;59.902;10.520;2023-04-03T15:42:56;4.60;;;0.93;;
71387;SDS011;59201;59.902;10.520;2023-04-03T15:45:27;5.57;;;1.30;;
71387;SDS011;59201;59.902;10.520;2023-04-03T15:47:56;4.15;;;1.00;;
71387;SDS011;59201;59.902;10.520;2023-04-03T15:50:23;4.28;;;1.10;;
71387;SDS011;59201;59.902;10.520;2023-04-03T15:52:52;6.60;;;1.00;;
71387;SDS011;59201;59.902;10.520;2023-04-03T15:55:22;4.35;;;1.05;;
71387;SDS011;59201;59.902;10.520;2023-04-03T15:57:50;5.80;;;1.15;;
71387;SDS011;59201;59.902;10.520;2023-04-03T16:00:18;6.13;;;1.10;;
71387;SDS011;59201;59.902;10.520;2023-04-03T16:02:47;4.22;;;0.90;;
71387;SDS011;59201;59.902;10.520;2023-04-03T16:05:17;4.57;;;1.20;;
71387;SDS011;59201;59.902;10.520;2023-04-03T16:07:46;3.83;;;1.10;;
71387;SDS011;59201;59.902;10.520;2023-04-03T16:10:16;4.70;;;1.10;;
71387;SDS011;59201;59.902;10.520;2023-04-03T16:12:44;3.70;;;1.10;;
71387;SDS011;59201;59.902;10.520;2023-04-03T16:15:12;4.70;;;1.20;;
71387;SDS011;59201;59.902;10.520;2023-04-03T16:17:44;9.63;;;1.23;;
71387;SDS011;59201;59.902;10.520;2023-04-03T16:20:14;4.90;;;1.10;;
71387;SDS011;59201;59.902;10.520;2023-04-03T16:22:43;5.47;;;1.10;;
71387;SDS011;59201;59.902;10.520;2023-04-03T16:25:11;4.63;;;1.20;;
71387;SDS011;59201;59.902;10.520;2023-04-03T16:27:40;4.55;;;1.20;;
71387;SDS011;59201;59.902;10.520;2023-04-03T16:30:09;4.77;;;1.00;;
71387;SDS011;59201;59.902;10.520;2023-04-03T16:32:37;3.53;;;0.90;;
71387;SDS011;59201;59.902;10.520;2023-04-03T16:35:07;5.63;;;1.15;;
71387;SDS011;59201;59.902;10.520;2023-04-03T16:37:36;3.50;;;0.90;;
71387;SDS011;59201;59.902;10.520;2023-04-03T16:40:11;5.30;;;1.30;;
71387;SDS011;59201;59.902;10.520;2023-04-03T16:42:39;3.13;;;0.70;;
71387;SDS011;59201;59.902;10.520;2023-04-03T16:45:09;5.60;;;1.10;;
71387;SDS011;59201;59.902;10.520;2023-04-03T16:47:37;5.32;;;1.00;;
71387;SDS011;59201;59.902;10.520;2023-04-03T16:50:11;4.25;;;1.10;;
71387;SDS011;59201;59.902;10.520;2023-04-03T16:52:40;5.15;;;1.60;;
71387;SDS011;59201;59.902;10.520;2023-04-03T16:55:09;4.93;;;1.13;;
71387;SDS011;59201;59.902;10.520;2023-04-03T16:57:38;4.05;;;0.90;;
71387;SDS011;59201;59.902;10.520;2023-04-03T17:00:08;7.40;;;1.35;;
71387;SDS011;59201;59.902;10.520;2023-04-03T17:02:37;4.85;;;1.33;;
71387;SDS011;59201;59.902;10.520;2023-04-03T17:05:06;3.67;;;0.95;;
71387;SDS011;59201;59.902;10.520;2023-04-03T17:07:35;3.97;;;1.00;;
71387;SDS011;59201;59.902;10.520;2023-04-03T17:10:08;3.85;;;0.88;;
71387;SDS011;59201;59.902;10.520;2023-04-03T17:12:38;5.15;;;1.05;;
71387;SDS011;59201;59.902;10.520;2023-04-03T17:15:07;4.07;;;0.90;;
71387;SDS011;59201;59.902;10.520;2023-04-03T17:17:35;5.20;;;1.50;;
71387;SDS011;59201;59.902;10.520;2023-04-03T17:20:06;4.30;;;1.17;;
71387;SDS011;59201;59.902;10.520;2023-04-03T17:22:38;9.10;;;1.10;;
71387;SDS011;59201;59.902;10.520;2023-04-03T17:25:06;5.53;;;1.02;;
71387;SDS011;59201;59.902;10.520;2023-04-03T17:27:38;4.28;;;1.00;;
71387;SDS011;59201;59.902;10.520;2023-04-03T17:30:05;5.93;;;1.20;;
71387;SDS011;59201;59.902;10.520;2023-04-03T17:32:33;7.20;;;1.30;;
71387;SDS011;59201;59.902;10.520;2023-04-03T17:35:03;4.10;;;1.00;;
71387;SDS011;59201;59.902;10.520;2023-04-03T17:37:33;3.58;;;0.93;;
71387;SDS011;59201;59.902;10.520;2023-04-03T17:40:02;3.75;;;1.10;;
71387;SDS011;59201;59.902;10.520;2023-04-03T17:42:31;5.47;;;1.00;;
71387;SDS011;59201;59.902;10.520;2023-04-03T17:45:01;4.30;;;1.20;;
71387;SDS011;59201;59.902;10.520;2023-04-03T17:47:28;5.70;;;1.05;;
71387;SDS011;59201;59.902;10.520;2023-04-03T17:49:56;5.15;;;1.27;;
71387;SDS011;59201;59.902;10.520;2023-04-03T17:52:26;7.82;;;1.20;;
71387;SDS011;59201;59.902;10.520;2023-04-03T17:54:57;4.13;;;1.10;;
71387;SDS011;59201;59.902;10.520;2023-04-03T17:57:26;8.40;;;1.40;;
71387;SDS011;59201;59.902;10.520;2023-04-03T17:59:56;7.03;;;1.30;;
71387;SDS011;59201;59.902;10.520;2023-04-03T18:02:25;7.22;;;1.40;;
71387;SDS011;59201;59.902;10.520;2023-04-03T18:04:55;3.83;;;1.13;;
71387;SDS011;59201;59.902;10.520;2023-04-03T18:07:23;7.15;;;1.75;;
71387;SDS011;59201;59.902;10.520;2023-04-03T18:09:50;7.97;;;1.70;;
71387;SDS011;59201;59.902;10.520;2023-04-03T18:12:19;6.00;;;1.20;;
71387;SDS011;59201;59.902;10.520;2023-04-03T18:14:48;5.68;;;1.33;;
71387;SDS011;59201;59.902;10.520;2023-04-03T18:17:16;5.20;;;1.30;;
71387;SDS011;59201;59.902;10.520;2023-04-03T18:19:45;5.35;;;1.20;;
71387;SDS011;59201;59.902;10.520;2023-04-03T18:22:14;7.63;;;1.30;;
71387;SDS011;59201;59.902;10.520;2023-04-03T18:24:45;5.28;;;1.08;;
71387;SDS011;59201;59.902;10.520;2023-04-03T18:27:15;8.60;;;1.50;;
71387;SDS011;59201;59.902;10.520;2023-04-03T18:29:45;6.10;;;1.30;;
71387;SDS011;59201;59.902;10.520;2023-04-03T18:32:15;4.70;;;1.10;;
71387;SDS011;59201;59.902;10.520;2023-04-03T18:34:47;5.83;;;1.30;;
71387;SDS011;59201;59.902;10.520;2023-04-03T18:37:18;9.52;;;1.52;;
71387;SDS011;59201;59.902;10.520;2023-04-03T18:39:48;6.03;;;1.42;;
71387;SDS011;59201;59.902;10.520;2023-04-03T18:42:22;8.30;;;1.83;;
71387;SDS011;59201;59.902;10.520;2023-04-03T18:44:52;7.22;;;2.03;;
71387;SDS011;59201;59.902;10.520;2023-04-03T18:47:26;6.87;;;1.70;;
71387;SDS011;59201;59.902;10.520;2023-04-03T18:49:54;6.07;;;1.50;;
71387;SDS011;59201;59.902;10.520;2023-04-03T18:52:22;5.70;;;1.50;;
71387;SDS011;59201;59.902;10.520;2023-04-03T18:54:50;7.55;;;1.80;;
71387;SDS011;59201;59.902;10.520;2023-04-03T18:57:18;6.03;;;1.20;;
71387;SDS011;59201;59.902;10.520;2023-04-03T18:59:47;7.20;;;1.67;;
71387;SDS011;59201;59.902;10.520;2023-04-03T19:02:14;4.95;;;1.40;;
71387;SDS011;59201;59.902;10.520;2023-04-03T19:04:49;6.95;;;1.63;;
71387;SDS011;59201;59.902;10.520;2023-04-03T19:07:16;5.38;;;1.65;;
71387;SDS011;59201;59.902;10.520;2023-04-03T19:09:49;5.22;;;1.40;;
71387;SDS011;59201;59.902;10.520;2023-04-03T19:12:18;8.47;;;1.50;;
71387;SDS011;59201;59.902;10.520;2023-04-03T19:14:46;6.60;;;1.60;;
71387;SDS011;59201;59.902;10.520;2023-04-03T19:17:15;5.78;;;1.40;;
71387;SDS011;59201;59.902;10.520;2023-04-03T19:19:43;6.35;;;1.38;;
71387;SDS011;59201;59.902;10.520;2023-04-03T19:22:14;6.03;;;1.90;;
71387;SDS011;59201;59.902;10.520;2023-04-03T19:24:43;5.23;;;1.60;;
71387;SDS011;59201;59.902;10.520;2023-04-03T19:27:13;5.90;;;1.50;;
71387;SDS011;59201;59.902;10.520;2023-04-03T19:29:42;5.53;;;1.70;;
71387;SDS011;59201;59.902;10.520;2023-04-03T19:32:11;7.00;;;1.80;;
71387;SDS011;59201;59.902;10.520;2023-04-03T19:34:39;5.95;;;1.55;;
71387;SDS011;59201;59.902;10.520;2023-04-03T19:37:08;6.20;;;1.70;;
71387;SDS011;59201;59.902;10.520;2023-04-03T19:39:36;9.40;;;1.83;;
71387;SDS011;59201;59.902;10.520;2023-04-03T19:42:03;9.45;;;1.80;;
71387;SDS011;59201;59.902;10.520;2023-04-03T19:44:34;9.18;;;2.92;;
71387;SDS011;59201;59.902;10.520;2023-04-03T19:47:02;9.43;;;3.38;;
71387;SDS011;59201;59.902;10.520;2023-04-03T19:49:31;9.23;;;2.40;;
71387;SDS011;59201;59.902;10.520;2023-04-03T19:52:00;8.65;;;2.35;;
71387;SDS011;59201;59.902;10.520;2023-04-03T19:54:28;8.95;;;2.35;;
71387;SDS011;59201;59.902;10.520;2023-04-03T19:56:56;7.22;;;2.42;;
71387;SDS011;59201;59.902;10.520;2023-04-03T19:59:24;11.35;;;4.55;;
71387;SDS011;59201;59.902;10.520;2023-04-03T20:01:53;11.73;;;4.17;;
71387;SDS011;59201;59.902;10.520;2023-04-03T20:04:26;11.23;;;3.85;;
71387;SDS011;59201;59.902;10.520;2023-04-03T20:06:54;12.43;;;3.60;;
71387;SDS011;59201;59.902;10.520;2023-04-03T20:09:22;10.65;;;3.67;;
71387;SDS011;59201;59.902;10.520;2023-04-03T20:11:49;9.15;;;3.28;;
71387;SDS011;59201;59.902;10.520;2023-04-03T20:14:19;9.27;;;3.13;;
71387;SDS011;59201;59.902;10.520;2023-04-03T20:16:47;11.10;;;2.78;;
71387;SDS011;59201;59.902;10.520;2023-04-03T20:19:17;7.78;;;3.13;;
71387;SDS011;59201;59.902;10.520;2023-04-03T20:21:46;9.63;;;2.92;;
71387;SDS011;59201;59.902;10.520;2023-04-03T20:24:15;9.07;;;3.30;;
71387;SDS011;59201;59.902;10.520;2023-04-03T20:26:48;8.27;;;2.87;;
71387;SDS011;59201;59.902;10.520;2023-04-03T20:29:16;8.50;;;2.70;;
71387;SDS011;59201;59.902;10.520;2023-04-03T20:31:47;8.40;;;2.88;;
71387;SDS011;59201;59.902;10.520;2023-04-03T20:34:14;11.70;;;3.35;;
71387;SDS011;59201;59.902;10.520;2023-04-03T20:36:43;12.38;;;3.75;;
71387;SDS011;59201;59.902;10.520;2023-04-03T20:39:14;11.73;;;3.90;;
71387;SDS011;59201;59.902;10.520;2023-04-03T20:41:45;15.13;;;4.20;;
71387;SDS011;59201;59.902;10.520;2023-04-03T20:44:15;14.25;;;4.43;;
71387;SDS011;59201;59.902;10.520;2023-04-03T20:46:45;12.05;;;3.97;;
71387;SDS011;59201;59.902;10.520;2023-04-03T20:49:13;11.13;;;3.75;;
71387;SDS011;59201;59.902;10.520;2023-04-03T20:51:42;9.30;;;3.37;;
71387;SDS011;59201;59.902;10.520;2023-04-03T20:54:11;10.63;;;2.97;;
71387;SDS011;59201;59.902;10.520;2023-04-03T20:56:39;8.90;;;2.83;;
71387;SDS011;59201;59.902;10.520;2023-04-03T20:59:08;11.38;;;3.40;;
71387;SDS011;59201;59.902;10.520;2023-04-03T21:01:39;9.07;;;3.10;;
71387;SDS011;59201;59.902;10.520;2023-04-03T21:04:11;10.50;;;2.80;;
71387;SDS011;59201;59.902;10.520;2023-04-03T21:20:43;12.15;;;2.83;;
71387;SDS011;59201;59.902;10.520;2023-04-03T21:23:13;8.82;;;2.90;;
71387;SDS011;59201;59.902;10.520;2023-04-03T21:25:41;9.32;;;2.97;;
71387;SDS011;59201;59.902;10.520;2023-04-03T21:28:09;10.43;;;3.05;;
71387;SDS011;59201;59.902;10.520;2023-04-03T21:30:38;6.93;;;2.50;;
71387;SDS011;59201;59.902;10.520;2023-04-03T21:33:08;8.68;;;3.17;;
71387;SDS011;59201;59.902;10.520;2023-04-03T21:35:40;7.55;;;2.40;;
71387;SDS011;59201;59.902;10.520;2023-04-03T21:38:11;7.88;;;2.38;;
71387;SDS011;59201;59.902;10.520;2023-04-03T21:40:40;7.85;;;2.55;;
71387;SDS011;59201;59.902;10.520;2023-04-03T21:43:12;9.67;;;2.37;;
71387;SDS011;59201;59.902;10.520;2023-04-03T21:45:41;6.35;;;2.10;;
71387;SDS011;59201;59.902;10.520;2023-04-03T21:48:10;9.77;;;2.22;;
71387;SDS011;59201;59.902;10.520;2023-04-03T21:50:41;7.55;;;2.10;;
71387;SDS011;59201;59.902;10.520;2023-04-03T21:53:09;8.10;;;2.20;;
71387;SDS011;59201;59.902;10.520;2023-04-03T21:55:37;7.30;;;2.10;;
71387;SDS011;59201;59.902;10.520;2023-04-03T21:58:05;8.88;;;2.30;;
71387;SDS011;59201;59.902;10.520;2023-04-03T22:00:34;6.55;;;2.10;;
71387;SDS011;59201;59.902;10.520;2023-04-03T22:03:03;8.10;;;2.20;;
71387;SDS011;59201;59.902;10.520;2023-04-03T22:05:30;7.95;;;2.05;;
71387;SDS011;59201;59.902;10.520;2023-04-03T22:08:02;6.27;;;1.90;;
71387;SDS011;59201;59.902;10.520;2023-04-03T22:10:31;7.47;;;2.00;;
71387;SDS011;59201;59.902;10.520;2023-04-03T22:13:01;8.95;;;2.20;;
71387;SDS011;59201;59.902;10.520;2023-04-03T22:15:34;6.57;;;2.03;;
71387;SDS011;59201;59.902;10.520;2023-04-03T22:18:08;9.13;;;2.35;;
71387;SDS011;59201;59.902;10.520;2023-04-03T22:20:35;6.63;;;2.23;;
71387;SDS011;59201;59.902;10.520;2023-04-03T22:23:03;7.47;;;1.95;;
71387;SDS011;59201;59.902;10.520;2023-04-03T22:25:33;7.38;;;1.70;;
71387;SDS011;59201;59.902;10.520;2023-04-03T22:28:02;5.00;;;1.38;;
71387;SDS011;59201;59.902;10.520;2023-04-03T22:30:30;7.30;;;2.08;;
71387;SDS011;59201;59.902;10.520;2023-04-03T22:32:59;7.77;;;2.00;;
71387;SDS011;59201;59.902;10.520;2023-04-03T22:35:27;6.68;;;2.15;;
71387;SDS011;59201;59.902;10.520;2023-04-03T22:37:56;6.50;;;2.15;;
71387;SDS011;59201;59.902;10.520;2023-04-03T22:40:26;5.95;;;1.90;;
71387;SDS011;59201;59.902;10.520;2023-04-03T22:42:54;5.78;;;1.67;;
71387;SDS011;59201;59.902;10.520;2023-04-03T22:45:26;5.90;;;1.57;;
71387;SDS011;59201;59.902;10.520;2023-04-03T22:47:53;8.70;;;2.00;;